sensor_id;sensor_type;location;lat;lon;timestamp;pressure;altitude;pressure_sealevel;temperature;humidity
54022;BME280;39936;51.058;17.220;2023-04-10T00:06:25;102671.66;;;5.56;100.00
54022;BME280;39936;51.058;17.220;2023-04-10T00:10:49;102671.95;;;5.43;100.00
54022;BME280;39936;51.058;17.220;2023-04-10T00:14:46;102665.97;;;5.33;100.00
54022;BME280;39936;51.058;17.220;2023-04-10T00:18:40;102668.16;;;5.34;100.00
54022;BME280;39936;51.058;17.220;2023-04-10T00:23:01;102662.85;;;5.34;100.00
54022;BME280;39936;51.058;17.220;2023-04-10T00:26:45;102658.64;;;5.33;100.00
54022;BME280;39936;51.058;17.220;2023-04-10T00:30:16;102656.34;;;5.28;100.00
54022;BME280;39936;51.058;17.220;2023-04-10T00:33:38;102655.56;;;5.17;100.00
54022;BME280;39936;51.058;17.220;2023-04-10T00:37:18;102661.09;;;5.10;100.00
54022;BME280;39936;51.058;17.220;2023-04-10T00:40:56;102660.87;;;4.98;100.00
54022;BME280;39936;51.058;17.220;2023-04-10T00:45:01;102660.84;;;4.83;100.00
54022;BME280;39936;51.058;17.220;2023-04-10T00:48:51;102654.56;;;4.76;100.00
54022;BME280;39936;51.058;17.220;2023-04-10T00:52:47;102653.36;;;4.74;100.00
54022;BME280;39936;51.058;17.220;2023-04-10T00:56:12;102650.06;;;4.71;100.00
54022;BME280;39936;51.058;17.220;2023-04-10T01:00:18;102651.63;;;4.64;100.00
54022;BME280;39936;51.058;17.220;2023-04-10T01:04:36;102663.99;;;4.09;100.00
54022;BME280;39936;51.058;17.220;2023-04-10T01:16:07;102632.55;;;3.92;100.00
54022;BME280;39936;51.058;17.220;2023-04-10T01:20:12;102670.51;;;4.20;100.00
54022;BME280;39936;51.058;17.220;2023-04-10T01:32:22;102676.39;;;3.95;100.00
54022;BME280;39936;51.058;17.220;2023-04-10T01:37:00;102674.57;;;4.05;100.00
54022;BME280;39936;51.058;17.220;2023-04-10T01:40:55;102672.36;;;4.06;100.00
54022;BME280;39936;51.058;17.220;2023-04-10T01:44:41;102664.86;;;4.17;100.00
54022;BME280;39936;51.058;17.220;2023-04-10T01:48:30;102669.49;;;4.27;100.00
54022;BME280;39936;51.058;17.220;2023-04-10T01:56:08;102667.60;;;4.25;100.00
54022;BME280;39936;51.058;17.220;2023-04-10T02:03:52;102667.73;;;4.21;100.00
54022;BME280;39936;51.058;17.220;2023-04-10T02:08:14;102675.28;;;4.29;100.00
54022;BME280;39936;51.058;17.220;2023-04-10T02:12:41;102674.95;;;4.47;100.00
54022;BME280;39936;51.058;17.220;2023-04-10T02:16:31;102671.83;;;4.63;100.00
54022;BME280;39936;51.058;17.220;2023-04-10T02:19:56;102660.33;;;4.66;100.00
54022;BME280;39936;51.058;17.220;2023-04-10T02:23:48;102669.66;;;4.77;100.00
54022;BME280;39936;51.058;17.220;2023-04-10T02:27:10;102674.88;;;4.75;100.00
54022;BME280;39936;51.058;17.220;2023-04-10T02:31:15;102673.67;;;4.75;100.00
54022;BME280;39936;51.058;17.220;2023-04-10T02:38:56;102667.23;;;4.81;100.00
54022;BME280;39936;51.058;17.220;2023-04-10T02:42:18;102651.41;;;4.61;100.00
54022;BME280;39936;51.058;17.220;2023-04-10T02:45:43;102669.12;;;4.77;100.00
54022;BME280;39936;51.058;17.220;2023-04-10T02:49:33;102669.05;;;4.80;100.00
54022;BME280;39936;51.058;17.220;2023-04-10T02:57:35;102675.94;;;4.74;100.00
54022;BME280;39936;51.058;17.220;2023-04-10T03:01:32;102671.34;;;4.66;100.00
54022;BME280;39936;51.058;17.220;2023-04-10T03:05:22;102675.70;;;4.68;100.00
54022;BME280;39936;51.058;17.220;2023-04-10T03:08:49;102669.94;;;4.79;100.00
54022;BME280;39936;51.058;17.220;2023-04-10T03:12:25;102667.95;;;4.88;100.00
54022;BME280;39936;51.058;17.220;2023-04-10T03:15:49;102671.47;;;4.74;100.00
54022;BME280;39936;51.058;17.220;2023-04-10T03:19:10;102657.84;;;4.68;100.00
54022;BME280;39936;51.058;17.220;2023-04-10T03:22:59;102669.48;;;4.87;100.00
54022;BME280;39936;51.058;17.220;2023-04-10T03:26:18;102668.27;;;4.93;100.00
54022;BME280;39936;51.058;17.220;2023-04-10T03:30:05;102668.40;;;5.02;100.00
54022;BME280;39936;51.058;17.220;2023-04-10T03:33:49;102667.17;;;5.11;100.00
54022;BME280;39936;51.058;17.220;2023-04-10T03:38:10;102662.33;;;5.17;100.00
54022;BME280;39936;51.058;17.220;2023-04-10T03:41:37;102665.41;;;5.19;100.00
54022;BME280;39936;51.058;17.220;2023-04-10T03:45:25;102664.94;;;5.23;100.00
54022;BME280;39936;51.058;17.220;2023-04-10T03:49:16;102644.74;;;5.20;100.00
54022;BME280;39936;51.058;17.220;2023-04-10T03:52:40;102671.58;;;5.23;100.00
54022;BME280;39936;51.058;17.220;2023-04-10T03:56:48;102662.20;;;4.97;100.00
54022;BME280;39936;51.058;17.220;2023-04-10T04:00:16;102670.88;;;4.98;100.00
54022;BME280;39936;51.058;17.220;2023-04-10T04:03:56;102653.43;;;4.91;100.00
54022;BME280;39936;51.058;17.220;2023-04-10T04:07:34;102668.20;;;5.12;100.00
54022;BME280;39936;51.058;17.220;2023-04-10T04:11:08;102642.09;;;5.10;100.00
54022;BME280;39936;51.058;17.220;2023-04-10T04:15:00;102662.34;;;5.28;100.00
54022;BME280;39936;51.058;17.220;2023-04-10T04:18:49;102664.33;;;5.38;100.00
54022;BME280;39936;51.058;17.220;2023-04-10T04:22:17;102665.47;;;5.40;100.00
54022;BME280;39936;51.058;17.220;2023-04-10T04:26:05;102672.56;;;5.50;100.00
54022;BME280;39936;51.058;17.220;2023-04-10T04:30:11;102675.74;;;5.50;100.00
54022;BME280;39936;51.058;17.220;2023-04-10T04:33:47;102674.85;;;5.42;100.00
54022;BME280;39936;51.058;17.220;2023-04-10T04:37:14;102681.91;;;5.39;100.00
54022;BME280;39936;51.058;17.220;2023-04-10T04:40:41;102684.61;;;5.40;100.00
54022;BME280;39936;51.058;17.220;2023-04-10T04:44:28;102685.94;;;5.47;100.00
54022;BME280;39936;51.058;17.220;2023-04-10T04:47:52;102684.46;;;5.47;100.00
54022;BME280;39936;51.058;17.220;2023-04-10T04:51:49;102685.41;;;5.51;100.00
54022;BME280;39936;51.058;17.220;2023-04-10T04:55:20;102694.13;;;5.50;100.00
54022;BME280;39936;51.058;17.220;2023-04-10T04:59:09;102678.56;;;5.39;100.00
54022;BME280;39936;51.058;17.220;2023-04-10T05:03:14;102705.95;;;5.35;100.00
54022;BME280;39936;51.058;17.220;2023-04-10T05:06:56;102687.59;;;5.04;100.00
54022;BME280;39936;51.058;17.220;2023-04-10T05:10:32;102724.87;;;5.14;100.00
54022;BME280;39936;51.058;17.220;2023-04-10T05:14:06;102728.09;;;5.08;100.00
54022;BME280;39936;51.058;17.220;2023-04-10T05:17:51;102725.72;;;5.15;100.00
54022;BME280;39936;51.058;17.220;2023-04-10T05:21:34;102727.91;;;5.06;100.00
54022;BME280;39936;51.058;17.220;2023-04-10T05:25:31;102720.74;;;4.99;100.00
54022;BME280;39936;51.058;17.220;2023-04-10T05:29:09;102732.07;;;5.27;100.00
54022;BME280;39936;51.058;17.220;2023-04-10T05:32:28;102737.02;;;5.49;100.00
54022;BME280;39936;51.058;17.220;2023-04-10T05:36:12;102738.04;;;5.44;100.00
54022;BME280;39936;51.058;17.220;2023-04-10T05:40:10;102737.89;;;5.47;100.00
54022;BME280;39936;51.058;17.220;2023-04-10T05:43:44;102738.41;;;5.49;100.00
54022;BME280;39936;51.058;17.220;2023-04-10T05:48:21;102731.02;;;5.47;100.00
54022;BME280;39936;51.058;17.220;2023-04-10T05:52:06;102701.52;;;5.28;100.00
54022;BME280;39936;51.058;17.220;2023-04-10T05:56:00;102729.45;;;5.37;100.00
54022;BME280;39936;51.058;17.220;2023-04-10T06:03:32;102730.71;;;5.29;100.00
54022;BME280;39936;51.058;17.220;2023-04-10T06:07:00;102733.31;;;5.17;100.00
54022;BME280;39936;51.058;17.220;2023-04-10T06:10:28;102740.61;;;5.06;100.00
54022;BME280;39936;51.058;17.220;2023-04-10T06:14:21;102741.04;;;5.03;100.00
54022;BME280;39936;51.058;17.220;2023-04-10T06:17:56;102739.80;;;5.08;100.00
54022;BME280;39936;51.058;17.220;2023-04-10T06:21:35;102747.67;;;5.20;100.00
54022;BME280;39936;51.058;17.220;2023-04-10T06:25:03;102752.20;;;5.24;100.00
54022;BME280;39936;51.058;17.220;2023-04-10T06:28:53;102760.23;;;5.30;100.00
54022;BME280;39936;51.058;17.220;2023-04-10T06:32:35;102763.33;;;5.31;100.00
54022;BME280;39936;51.058;17.220;2023-04-10T06:36:18;102769.18;;;5.41;100.00
54022;BME280;39936;51.058;17.220;2023-04-10T06:41:46;102764.93;;;5.42;100.00
54022;BME280;39936;51.058;17.220;2023-04-10T06:45:34;102753.28;;;5.16;100.00
54022;BME280;39936;51.058;17.220;2023-04-10T06:49:44;102778.95;;;5.34;100.00
54022;BME280;39936;51.058;17.220;2023-04-10T06:53:25;102778.39;;;5.42;100.00
54022;BME280;39936;51.058;17.220;2023-04-10T06:57:03;102765.38;;;5.42;100.00
54022;BME280;39936;51.058;17.220;2023-04-10T07:00:27;102774.63;;;5.49;100.00
54022;BME280;39936;51.058;17.220;2023-04-10T07:03:44;102778.89;;;5.62;100.00
54022;BME280;39936;51.058;17.220;2023-04-10T07:07:15;102772.34;;;5.53;100.00
54022;BME280;39936;51.058;17.220;2023-04-10T07:10:35;102773.87;;;5.75;100.00
54022;BME280;39936;51.058;17.220;2023-04-10T07:14:06;102773.52;;;5.87;100.00
54022;BME280;39936;51.058;17.220;2023-04-10T07:18:21;102774.48;;;6.14;100.00
54022;BME280;39936;51.058;17.220;2023-04-10T07:22:19;102766.14;;;6.26;100.00
54022;BME280;39936;51.058;17.220;2023-04-10T07:26:13;102763.04;;;6.53;100.00
54022;BME280;39936;51.058;17.220;2023-04-10T07:30:21;102758.69;;;6.61;100.00
54022;BME280;39936;51.058;17.220;2023-04-10T07:34:19;102758.81;;;6.45;100.00
54022;BME280;39936;51.058;17.220;2023-04-10T07:41:37;102755.12;;;6.62;100.00
54022;BME280;39936;51.058;17.220;2023-04-10T07:45:17;102755.52;;;6.69;100.00
54022;BME280;39936;51.058;17.220;2023-04-10T07:48:57;102748.79;;;7.01;100.00
54022;BME280;39936;51.058;17.220;2023-04-10T07:52:23;102738.50;;;7.35;100.00
54022;BME280;39936;51.058;17.220;2023-04-10T07:55:49;102740.02;;;7.54;100.00
54022;BME280;39936;51.058;17.220;2023-04-10T07:59:25;102743.62;;;7.52;100.00
54022;BME280;39936;51.058;17.220;2023-04-10T08:02:55;102746.05;;;7.68;100.00
54022;BME280;39936;51.058;17.220;2023-04-10T08:06:24;102746.97;;;7.78;100.00
54022;BME280;39936;51.058;17.220;2023-04-10T08:10:23;102728.55;;;7.61;100.00
54022;BME280;39936;51.058;17.220;2023-04-10T08:14:28;102749.54;;;7.63;100.00
54022;BME280;39936;51.058;17.220;2023-04-10T08:17:53;102738.46;;;7.18;100.00
54022;BME280;39936;51.058;17.220;2023-04-10T08:21:54;102750.50;;;7.35;100.00
54022;BME280;39936;51.058;17.220;2023-04-10T08:25:16;102744.80;;;7.50;100.00
54022;BME280;39936;51.058;17.220;2023-04-10T08:29:18;102747.07;;;7.67;100.00
54022;BME280;39936;51.058;17.220;2023-04-10T08:33:14;102740.16;;;7.65;100.00
54022;BME280;39936;51.058;17.220;2023-04-10T08:36:42;102732.66;;;7.58;100.00
54022;BME280;39936;51.058;17.220;2023-04-10T08:40:13;102735.73;;;7.66;100.00
54022;BME280;39936;51.058;17.220;2023-04-10T08:43:35;102733.19;;;7.74;100.00
54022;BME280;39936;51.058;17.220;2023-04-10T08:50:53;102740.02;;;7.62;100.00
54022;BME280;39936;51.058;17.220;2023-04-10T08:54:37;102743.15;;;7.58;100.00
54022;BME280;39936;51.058;17.220;2023-04-10T08:58:22;102743.18;;;7.52;100.00
54022;BME280;39936;51.058;17.220;2023-04-10T09:01:58;102746.03;;;7.58;100.00
54022;BME280;39936;51.058;17.220;2023-04-10T09:09:30;102735.87;;;7.62;100.00
54022;BME280;39936;51.058;17.220;2023-04-10T09:13:07;102725.73;;;7.70;100.00
54022;BME280;39936;51.058;17.220;2023-04-10T09:20:31;102717.53;;;8.35;100.00
54022;BME280;39936;51.058;17.220;2023-04-10T09:23:59;102709.74;;;8.56;100.00
54022;BME280;39936;51.058;17.220;2023-04-10T09:27:42;102699.43;;;8.84;100.00
54022;BME280;39936;51.058;17.220;2023-04-10T09:38:50;102687.45;;;9.29;100.00
54022;BME280;39936;51.058;17.220;2023-04-10T09:46:33;102639.22;;;9.85;100.00
54022;BME280;39936;51.058;17.220;2023-04-10T09:50:33;102661.72;;;10.46;100.00
54022;BME280;39936;51.058;17.220;2023-04-10T09:54:12;102661.09;;;11.12;100.00
54022;BME280;39936;51.058;17.220;2023-04-10T09:58:18;102655.81;;;11.44;100.00
54022;BME280;39936;51.058;17.220;2023-04-10T10:02:06;102653.45;;;11.33;100.00
54022;BME280;39936;51.058;17.220;2023-04-10T10:05:50;102646.53;;;10.65;100.00
54022;BME280;39936;51.058;17.220;2023-04-10T10:09:51;102636.56;;;10.83;100.00
54022;BME280;39936;51.058;17.220;2023-04-10T10:14:11;102638.33;;;11.06;100.00
54022;BME280;39936;51.058;17.220;2023-04-10T10:22:07;102588.52;;;11.55;97.25
54022;BME280;39936;51.058;17.220;2023-04-10T10:26:22;102615.09;;;11.84;96.98
54022;BME280;39936;51.058;17.220;2023-04-10T10:30:21;102603.20;;;11.76;96.77
54022;BME280;39936;51.058;17.220;2023-04-10T10:34:08;102604.56;;;12.02;95.09
54022;BME280;39936;51.058;17.220;2023-04-10T10:37:56;102599.27;;;12.27;93.45
54022;BME280;39936;51.058;17.220;2023-04-10T10:42:22;102596.41;;;12.48;89.24
54022;BME280;39936;51.058;17.220;2023-04-10T10:49:59;102559.89;;;12.34;87.46
54022;BME280;39936;51.058;17.220;2023-04-10T10:53:55;102588.60;;;12.09;83.70
54022;BME280;39936;51.058;17.220;2023-04-10T10:58:06;102585.31;;;11.89;87.84
54022;BME280;39936;51.058;17.220;2023-04-10T11:01:30;102591.15;;;11.79;92.73
54022;BME280;39936;51.058;17.220;2023-04-10T11:04:52;102587.38;;;11.69;88.62
54022;BME280;39936;51.058;17.220;2023-04-10T11:08:17;102586.76;;;11.64;86.18
54022;BME280;39936;51.058;17.220;2023-04-10T11:12:07;102569.27;;;11.14;88.80
54022;BME280;39936;51.058;17.220;2023-04-10T11:15:58;102567.06;;;11.57;90.95
54022;BME280;39936;51.058;17.220;2023-04-10T11:24:01;102551.37;;;11.97;86.23
54022;BME280;39936;51.058;17.220;2023-04-10T11:35:34;102526.76;;;11.31;88.06
54022;BME280;39936;51.058;17.220;2023-04-10T11:39:17;102544.48;;;11.27;87.29
54022;BME280;39936;51.058;17.220;2023-04-10T11:43:11;102543.09;;;11.30;87.72
54022;BME280;39936;51.058;17.220;2023-04-10T11:47:01;102536.28;;;11.55;90.92
54022;BME280;39936;51.058;17.220;2023-04-10T11:50:48;102527.13;;;12.16;89.91
54022;BME280;39936;51.058;17.220;2023-04-10T11:59:08;102506.08;;;12.78;82.70
54022;BME280;39936;51.058;17.220;2023-04-10T12:03:41;102525.91;;;12.78;77.49
54022;BME280;39936;51.058;17.220;2023-04-10T12:07:37;102517.08;;;12.94;84.04
54022;BME280;39936;51.058;17.220;2023-04-10T12:11:07;102511.51;;;13.17;79.34
54022;BME280;39936;51.058;17.220;2023-04-10T12:14:58;102506.71;;;13.31;79.14
54022;BME280;39936;51.058;17.220;2023-04-10T12:18:40;102493.93;;;13.41;80.80
54022;BME280;39936;51.058;17.220;2023-04-10T12:22:58;102497.00;;;13.60;77.93
54022;BME280;39936;51.058;17.220;2023-04-10T12:30:34;102485.74;;;14.08;81.09
54022;BME280;39936;51.058;17.220;2023-04-10T12:34:04;102486.45;;;14.04;78.88
54022;BME280;39936;51.058;17.220;2023-04-10T12:37:57;102480.87;;;14.21;79.03
54022;BME280;39936;51.058;17.220;2023-04-10T12:41:23;102479.48;;;13.77;78.33
54022;BME280;39936;51.058;17.220;2023-04-10T12:45:00;102489.24;;;13.59;79.81
54022;BME280;39936;51.058;17.220;2023-04-10T12:49:13;102481.40;;;13.72;78.64
54022;BME280;39936;51.058;17.220;2023-04-10T12:53:05;102478.08;;;13.77;78.00
54022;BME280;39936;51.058;17.220;2023-04-10T12:56:43;102467.27;;;13.49;77.28
54022;BME280;39936;51.058;17.220;2023-04-10T13:00:23;102468.55;;;13.50;80.08
54022;BME280;39936;51.058;17.220;2023-04-10T13:04:38;102461.87;;;13.46;78.12
54022;BME280;39936;51.058;17.220;2023-04-10T13:08:05;102456.96;;;13.83;79.45
54022;BME280;39936;51.058;17.220;2023-04-10T13:11:25;102446.98;;;13.98;75.44
54022;BME280;39936;51.058;17.220;2023-04-10T13:15:27;102440.67;;;14.34;75.29
54022;BME280;39936;51.058;17.220;2023-04-10T13:19:06;102435.89;;;14.63;73.29
54022;BME280;39936;51.058;17.220;2023-04-10T13:22:26;102415.38;;;13.79;76.02
54022;BME280;39936;51.058;17.220;2023-04-10T13:26:16;102423.83;;;13.89;78.97
54022;BME280;39936;51.058;17.220;2023-04-10T13:29:42;102416.49;;;14.01;77.61
54022;BME280;39936;51.058;17.220;2023-04-10T13:33:53;102415.28;;;14.02;79.10
54022;BME280;39936;51.058;17.220;2023-04-10T13:37:16;102410.02;;;14.11;75.53
54022;BME280;39936;51.058;17.220;2023-04-10T13:40:37;102404.54;;;13.97;74.13
54022;BME280;39936;51.058;17.220;2023-04-10T13:44:19;102400.16;;;13.66;75.32
54022;BME280;39936;51.058;17.220;2023-04-10T13:47:41;102390.84;;;13.64;75.85
54022;BME280;39936;51.058;17.220;2023-04-10T13:51:58;102381.30;;;13.63;76.70
54022;BME280;39936;51.058;17.220;2023-04-10T13:55:14;102356.09;;;13.57;78.08
54022;BME280;39936;51.058;17.220;2023-04-10T13:58:38;102341.08;;;13.49;75.64
54022;BME280;39936;51.058;17.220;2023-04-10T14:02:12;102376.53;;;13.76;76.13
54022;BME280;39936;51.058;17.220;2023-04-10T14:06:43;102367.21;;;13.92;74.72
54022;BME280;39936;51.058;17.220;2023-04-10T14:10:23;102360.13;;;14.05;71.30
54022;BME280;39936;51.058;17.220;2023-04-10T14:14:57;102329.53;;;13.75;70.65
54022;BME280;39936;51.058;17.220;2023-04-10T14:18:23;102347.73;;;14.23;72.44
54022;BME280;39936;51.058;17.220;2023-04-10T14:21:54;102339.84;;;14.51;70.64
54022;BME280;39936;51.058;17.220;2023-04-10T14:25:20;102333.34;;;14.58;71.98
54022;BME280;39936;51.058;17.220;2023-04-10T14:29:33;102331.18;;;14.50;70.75
54022;BME280;39936;51.058;17.220;2023-04-10T14:32:53;102328.28;;;14.57;68.75
54022;BME280;39936;51.058;17.220;2023-04-10T14:36:54;102319.16;;;14.73;66.94
54022;BME280;39936;51.058;17.220;2023-04-10T14:40:29;102321.97;;;14.42;69.86
54022;BME280;39936;51.058;17.220;2023-04-10T14:44:39;102309.41;;;14.60;70.37
54022;BME280;39936;51.058;17.220;2023-04-10T14:47:59;102305.56;;;14.23;65.97
54022;BME280;39936;51.058;17.220;2023-04-10T14:52:02;102303.56;;;14.05;69.17
54022;BME280;39936;51.058;17.220;2023-04-10T14:55:20;102295.91;;;14.44;70.73
54022;BME280;39936;51.058;17.220;2023-04-10T14:58:44;102290.45;;;14.51;67.81
54022;BME280;39936;51.058;17.220;2023-04-10T15:02:09;102286.78;;;14.53;68.72
54022;BME280;39936;51.058;17.220;2023-04-10T15:05:38;102290.34;;;14.15;69.26
54022;BME280;39936;51.058;17.220;2023-04-10T15:09:17;102273.65;;;14.22;69.93
54022;BME280;39936;51.058;17.220;2023-04-10T15:12:44;102276.63;;;14.41;68.62
54022;BME280;39936;51.058;17.220;2023-04-10T15:19:59;102250.52;;;14.39;68.22
54022;BME280;39936;51.058;17.220;2023-04-10T15:23:18;102262.97;;;14.57;67.77
54022;BME280;39936;51.058;17.220;2023-04-10T15:26:56;102233.59;;;14.36;66.78
54022;BME280;39936;51.058;17.220;2023-04-10T15:30:15;102250.47;;;14.38;67.80
54022;BME280;39936;51.058;17.220;2023-04-10T15:33:33;102248.59;;;14.27;68.33
54022;BME280;39936;51.058;17.220;2023-04-10T15:36:55;102244.07;;;14.17;69.22
54022;BME280;39936;51.058;17.220;2023-04-10T15:40:58;102237.73;;;14.32;69.65
54022;BME280;39936;51.058;17.220;2023-04-10T15:44:33;102230.82;;;14.23;69.56
54022;BME280;39936;51.058;17.220;2023-04-10T15:47:48;102224.71;;;14.08;68.31
54022;BME280;39936;51.058;17.220;2023-04-10T15:51:30;102221.95;;;14.10;68.89
54022;BME280;39936;51.058;17.220;2023-04-10T15:54:53;102191.55;;;13.95;68.02
54022;BME280;39936;51.058;17.220;2023-04-10T15:58:24;102221.52;;;13.88;68.65
54022;BME280;39936;51.058;17.220;2023-04-10T16:01:43;102219.41;;;13.87;69.51
54022;BME280;39936;51.058;17.220;2023-04-10T16:05:04;102207.29;;;13.93;69.64
54022;BME280;39936;51.058;17.220;2023-04-10T16:08:35;102201.80;;;13.88;69.14
54022;BME280;39936;51.058;17.220;2023-04-10T16:11:59;102199.65;;;13.94;69.04
54022;BME280;39936;51.058;17.220;2023-04-10T16:15:19;102195.16;;;13.86;67.92
54022;BME280;39936;51.058;17.220;2023-04-10T16:18:40;102187.58;;;13.65;67.83
54022;BME280;39936;51.058;17.220;2023-04-10T16:22:01;102194.36;;;13.66;68.71
54022;BME280;39936;51.058;17.220;2023-04-10T16:25:40;102158.30;;;13.59;67.94
54022;BME280;39936;51.058;17.220;2023-04-10T16:30:06;102187.98;;;13.63;67.99
54022;BME280;39936;51.058;17.220;2023-04-10T16:33:56;102175.02;;;13.72;68.58
54022;BME280;39936;51.058;17.220;2023-04-10T16:37:17;102176.12;;;13.63;68.36
54022;BME280;39936;51.058;17.220;2023-04-10T16:41:03;102171.25;;;13.35;68.45
54022;BME280;39936;51.058;17.220;2023-04-10T16:44:29;102165.27;;;13.35;70.43
54022;BME280;39936;51.058;17.220;2023-04-10T16:48:30;102163.31;;;13.23;70.44
54022;BME280;39936;51.058;17.220;2023-04-10T16:52:12;102146.69;;;13.40;72.27
54022;BME280;39936;51.058;17.220;2023-04-10T16:56:20;102141.28;;;13.84;71.79
54022;BME280;39936;51.058;17.220;2023-04-10T16:59:41;102138.56;;;13.69;68.77
54022;BME280;39936;51.058;17.220;2023-04-10T17:07:29;102137.70;;;13.18;71.02
54022;BME280;39936;51.058;17.220;2023-04-10T17:10:45;102130.03;;;12.95;71.39
54022;BME280;39936;51.058;17.220;2023-04-10T17:14:23;102123.52;;;12.73;71.77
54022;BME280;39936;51.058;17.220;2023-04-10T17:18:00;102140.77;;;12.69;72.18
54022;BME280;39936;51.058;17.220;2023-04-10T17:29:39;102143.24;;;12.63;73.56
54022;BME280;39936;51.058;17.220;2023-04-10T17:33:27;102145.03;;;12.57;73.75
54022;BME280;39936;51.058;17.220;2023-04-10T17:41:17;102150.10;;;12.02;75.76
54022;BME280;39936;51.058;17.220;2023-04-10T17:45:11;102117.97;;;11.53;76.08
54022;BME280;39936;51.058;17.220;2023-04-10T17:49:27;102148.76;;;11.48;76.52
54022;BME280;39936;51.058;17.220;2023-04-10T17:53:32;102126.36;;;11.03;77.25
54022;BME280;39936;51.058;17.220;2023-04-10T17:57:12;102151.80;;;10.95;77.80
54022;BME280;39936;51.058;17.220;2023-04-10T18:00:39;102115.85;;;10.50;79.08
54022;BME280;39936;51.058;17.220;2023-04-10T18:04:17;102149.78;;;10.48;79.50
54022;BME280;39936;51.058;17.220;2023-04-10T18:07:57;102145.77;;;10.22;81.83
54022;BME280;39936;51.058;17.220;2023-04-10T18:11:42;102155.96;;;9.99;83.36
54022;BME280;39936;51.058;17.220;2023-04-10T18:15:27;102161.41;;;9.76;85.25
54022;BME280;39936;51.058;17.220;2023-04-10T18:18:55;102163.07;;;9.54;85.68
54022;BME280;39936;51.058;17.220;2023-04-10T18:23:00;102139.73;;;9.17;85.75
54022;BME280;39936;51.058;17.220;2023-04-10T18:26:52;102170.08;;;9.17;86.45
54022;BME280;39936;51.058;17.220;2023-04-10T18:31:05;102175.16;;;9.02;87.06
54022;BME280;39936;51.058;17.220;2023-04-10T18:35:32;102169.84;;;8.86;87.60
54022;BME280;39936;51.058;17.220;2023-04-10T18:43:57;102165.63;;;8.67;89.34
54022;BME280;39936;51.058;17.220;2023-04-10T18:48:03;102168.52;;;8.61;90.90
54022;BME280;39936;51.058;17.220;2023-04-10T18:51:45;102169.81;;;8.50;91.88
54022;BME280;39936;51.058;17.220;2023-04-10T18:55:40;102175.73;;;8.42;92.34
54022;BME280;39936;51.058;17.220;2023-04-10T18:59:55;102176.53;;;8.29;92.90
54022;BME280;39936;51.058;17.220;2023-04-10T19:03:18;102169.41;;;8.06;97.65
54022;BME280;39936;51.058;17.220;2023-04-10T19:07:18;102167.26;;;8.02;98.29
54022;BME280;39936;51.058;17.220;2023-04-10T19:11:23;102148.18;;;7.90;98.93
54022;BME280;39936;51.058;17.220;2023-04-10T19:15:13;102158.63;;;7.96;99.87
54022;BME280;39936;51.058;17.220;2023-04-10T19:19:18;102159.11;;;7.83;100.00
54022;BME280;39936;51.058;17.220;2023-04-10T19:22:57;102151.75;;;7.83;100.00
54022;BME280;39936;51.058;17.220;2023-04-10T19:26:17;102142.93;;;7.75;100.00
54022;BME280;39936;51.058;17.220;2023-04-10T19:30:01;102154.70;;;7.76;100.00
54022;BME280;39936;51.058;17.220;2023-04-10T19:33:43;102141.04;;;7.60;100.00
54022;BME280;39936;51.058;17.220;2023-04-10T19:37:25;102130.50;;;7.51;100.00
54022;BME280;39936;51.058;17.220;2023-04-10T19:41:25;102148.20;;;7.56;100.00
54022;BME280;39936;51.058;17.220;2023-04-10T19:45:11;102125.76;;;7.31;100.00
54022;BME280;39936;51.058;17.220;2023-04-10T19:48:55;102142.16;;;7.32;100.00
54022;BME280;39936;51.058;17.220;2023-04-10T19:52:15;102147.78;;;7.26;100.00
54022;BME280;39936;51.058;17.220;2023-04-10T19:55:40;102145.80;;;7.14;100.00
54022;BME280;39936;51.058;17.220;2023-04-10T19:59:25;102145.59;;;6.99;100.00
54022;BME280;39936;51.058;17.220;2023-04-10T20:03:18;102138.30;;;6.90;100.00
54022;BME280;39936;51.058;17.220;2023-04-10T20:11:29;102125.20;;;6.75;100.00
54022;BME280;39936;51.058;17.220;2023-04-10T20:19:34;102124.41;;;6.71;100.00
54022;BME280;39936;51.058;17.220;2023-04-10T20:22:55;102117.09;;;6.62;100.00
54022;BME280;39936;51.058;17.220;2023-04-10T20:26:45;102111.88;;;6.52;100.00
54022;BME280;39936;51.058;17.220;2023-04-10T20:30:33;102109.55;;;6.39;100.00
54022;BME280;39936;51.058;17.220;2023-04-10T20:34:25;102104.59;;;6.19;100.00
54022;BME280;39936;51.058;17.220;2023-04-10T20:37:47;102103.14;;;6.03;100.00
54022;BME280;39936;51.058;17.220;2023-04-10T20:41:30;102098.43;;;6.00;100.00
54022;BME280;39936;51.058;17.220;2023-04-10T20:45:42;102093.42;;;5.99;100.00
54022;BME280;39936;51.058;17.220;2023-04-10T20:50:05;102082.83;;;5.98;100.00
54022;BME280;39936;51.058;17.220;2023-04-10T20:53:47;102044.20;;;5.79;100.00
54022;BME280;39936;51.058;17.220;2023-04-10T20:57:09;102074.20;;;5.98;100.00
54022;BME280;39936;51.058;17.220;2023-04-10T21:04:57;102065.65;;;5.95;100.00
54022;BME280;39936;51.058;17.220;2023-04-10T21:08:55;102025.97;;;5.78;100.00
54022;BME280;39936;51.058;17.220;2023-04-10T21:12:52;102013.92;;;5.70;100.00
54022;BME280;39936;51.058;17.220;2023-04-10T21:16:15;102041.41;;;5.82;100.00
54022;BME280;39936;51.058;17.220;2023-04-10T21:20:27;102038.39;;;5.71;100.00
54022;BME280;39936;51.058;17.220;2023-04-10T21:24:18;102027.48;;;5.69;100.00
54022;BME280;39936;51.058;17.220;2023-04-10T21:32:01;102021.06;;;5.75;100.00
54022;BME280;39936;51.058;17.220;2023-04-10T21:35:42;102015.53;;;5.76;100.00